Home > Products > Valid Products > TAF

000
FTUS42 KILM 271601 AAB
TAFFLO
TAF AMD
KFLO 271601Z 2716/2812 35006KT P6SM VCSH SCT008 BKN040 OVC100
      TEMPO 2716/2717 01015G22KT 2SM +SHRA BKN018
     FM271700 36010KT 6SM -RA BKN010 OVC030
     FM272100 02010KT P6SM BKN016=



000
FTUS42 KILM 271519 AAB
TAFLBT
TAF AMD
KLBT 271519Z 2715/2812 34010G18KT 4SM -RA SCT008 BKN020
     FM271600 32010G17KT 6SM -RA BR OVC008
     FM271700 36010KT 6SM -RA BKN010 OVC030
     FM272100 02010KT P6SM BKN016=



000
FTUS42 KILM 271447 AAA
TAFLBT
TAF AMD
KLBT 271447Z 2715/2812 23006KT P6SM VCSH SCT008 BKN040 OVC100
      TEMPO 2715/2716 4SM -SHRA BKN016
     FM271600 32010G17KT 6SM -RA BR OVC004
     FM271700 36010KT 6SM -RA BKN010 OVC030
     FM272100 02010KT P6SM BKN016=



000
FTUS42 KILM 271447 AAA
TAFLBT
TAF AMD
KLBT 271447Z 2715/2812 23006KT P6SM VCSH SCT008 BKN040 OVC100
      TEMPO 2715/2716 4SM -SHRA BKN016
     FM271600 32010G17KT 6SM -RA BR OVC004
     FM271700 36010KT 6SM -RA BKN010 OVC030
     FM272100 02010KT P6SM BKN016=



000
FTUS42 KILM 271407 CCA
TAFILM
TAF COR
KILM 271407Z 2714/2812 24008KT 6SM BR BKN013
     FM271600 25010KT 6SM -SHRA BKN016
     FM271800 34011G18KT 5SM -RA BR BKN012
     FM272100 35012G20KT 6SM -RA BKN008 OVC012
     FM272300 36012KT P6SM BKN014=



000
FTUS42 KILM 271406 AAB
TAFILM
TAF AMD
KILM 271406Z 2714/2812 24008KT 6SM BR BKN013
     FM271600 25010KT 6SM -SHRA BKN016
      TEMPO 2718/2721 24015KT 2SM SHRA BKN012
     FM272100 34012G20KT 6SM -RA BKN008 OVC012
     FM272300 36012KT P6SM BKN014=



000
FTUS42 KILM 271406 AAB
TAFILM
TAF AMD
KILM 271406Z 2714/2812 24008KT 6SM BR BKN013
     FM271600 25010KT 6SM -SHRA BKN016
      TEMPO 2718/2721 24015KT 2SM SHRA BKN012
     FM272100 34012G20KT 6SM -RA BKN008 OVC012
     FM272300 36012KT P6SM BKN014=



000
FTUS42 KILM 271341 AAA
TAFFLO
TAF AMD
KFLO 271341Z 2714/2812 23006KT P6SM VCSH SCT008 BKN040 OVC100
      TEMPO 2715/2716 -SHRA BKN008
     FM271600 32010G17KT 3SM -RA BR OVC004
     FM271700 36010KT 6SM -RA BKN010 OVC030
     FM272100 02010KT P6SM BKN016=



000
FTUS42 KILM 271341 AAA
TAFFLO
TAF AMD
KFLO 271341Z 2714/2812 23006KT P6SM VCSH SCT008 BKN040 OVC100
      TEMPO 2715/2716 -SHRA BKN008
     FM271600 32010G17KT 3SM -RA BR OVC004
     FM271700 36010KT 6SM -RA BKN010 OVC030
     FM272100 02010KT P6SM BKN016=



000
FTUS42 KILM 271331 AAC
TAFCRE
TAF AMD
KCRE 271331Z 2714/2812 25010KT 6SM BR SCT016
      TEMPO 2716/2718 24015KT 2SM SHRA BKN012
     FM271800 34012G20KT 6SM -RA BKN008 OVC012
     FM272300 36012KT P6SM BKN014=



000
FTUS42 KILM 271331 AAC
TAFCRE
TAF AMD
KCRE 271331Z 2714/2812 25010KT 6SM BR SCT016
      TEMPO 2716/2718 24015KT 2SM SHRA BKN012
     FM271800 34012G20KT 6SM -RA BKN008 OVC012
     FM272300 36012KT P6SM BKN014=



000
FTUS42 KILM 271330 AAC
TAFILM
TAF AMD
KILM 271330Z 2714/2812 24008KT 6SM BR BKN007
     FM271600 25010KT 6SM -SHRA BKN016
      TEMPO 2718/2721 24015KT 2SM SHRA BKN012
     FM272100 34012G20KT 6SM -RA BKN008 OVC012
     FM272300 36012KT P6SM BKN014=



000
FTUS42 KILM 271330 AAC
TAFILM
TAF AMD
KILM 271330Z 2714/2812 24008KT 6SM BR BKN007
     FM271600 25010KT 6SM -SHRA BKN016
      TEMPO 2718/2721 24015KT 2SM SHRA BKN012
     FM272100 34012G20KT 6SM -RA BKN008 OVC012
     FM272300 36012KT P6SM BKN014=



000
FTUS42 KILM 271239 AAB
TAFCRE
TAF AMD
KCRE 271239Z 2713/2812 22008KT 1/2SM FG VV002
      TEMPO 2713/2714 6SM BR SCT002 BKN100
     FM271400 25010KT 6SM -SHRA BKN016
      TEMPO 2716/2718 24015KT 2SM SHRA BKN012
     FM271800 34012G20KT 6SM -RA BKN008 OVC012
     FM272300 36012KT P6SM BKN014=



000
FTUS42 KILM 271239 AAB
TAFCRE
TAF AMD
KCRE 271239Z 2713/2812 22008KT 1/2SM FG VV002
      TEMPO 2713/2714 6SM BR SCT002 BKN100
     FM271400 25010KT 6SM -SHRA BKN016
      TEMPO 2716/2718 24015KT 2SM SHRA BKN012
     FM271800 34012G20KT 6SM -RA BKN008 OVC012
     FM272300 36012KT P6SM BKN014=



000
FTUS42 KILM 271128 AAA
TAFCRE
TAF AMD
KCRE 271128Z 2711/2812 22008KT 1/2SM FG VV002
     FM271400 25010KT 6SM -SHRA BKN016
      TEMPO 2716/2718 24015KT 2SM SHRA BKN012
     FM271800 34012G20KT 6SM -RA BKN008 OVC012
     FM272300 36012KT P6SM BKN014=



000
FTUS42 KILM 271120
TAFFLO
TAF
KFLO 271120Z 2712/2812 23006KT P6SM VCSH SCT008 BKN040 OVC100
      TEMPO 2713/2715 -SHRA BKN008
     FM271500 32010G17KT 3SM -RA BR OVC004
     FM271700 36010KT 6SM -RA BKN010 OVC030
     FM272100 02010KT P6SM BKN016=



000
FTUS42 KILM 271120
TAFCRE
TAF
KCRE 271120Z 2712/2812 24008KT 6SM BR VCSH SCT008 OVC090
     FM271400 25010KT 6SM -SHRA BKN016
      TEMPO 2716/2718 24015KT 2SM SHRA BKN012
     FM271800 34012G20KT 6SM -RA BKN008 OVC012
     FM272300 36012KT P6SM BKN014=



000
FTUS42 KILM 271120
TAFLBT
TAF
KLBT 271120Z 2712/2812 23006KT P6SM VCSH SCT008 BKN040 OVC100
      TEMPO 2713/2715 -SHRA BKN008
     FM271500 32010G17KT 3SM -RA BR OVC004
     FM271700 36010KT 6SM -RA BKN010 OVC030
     FM272100 02010KT P6SM BKN016=



000
FTUS42 KILM 271120
TAFILM
TAF
KILM 271120Z 2712/2812 24008KT 6SM BR VCSH SCT008 OVC090
     FM271400 25010KT 6SM -SHRA BKN016
      TEMPO 2716/2718 24015KT 2SM SHRA BKN012
     FM271800 34012G20KT 6SM -RA BKN008 OVC012
     FM272300 36012KT P6SM BKN014=



000
FTUS42 KILM 271120
TAFMYR
TAF
KMYR 271120Z 2712/2812 24008KT 6SM BR VCSH SCT008 OVC090
     FM271400 25010KT 6SM -SHRA BKN016
      TEMPO 2716/2718 24015KT 2SM SHRA BKN012
     FM271800 34012G20KT 6SM -RA BKN008 OVC012
     FM272300 36012KT P6SM BKN014=



000
FTUS42 KILM 271104 AAA
TAFMYR
TAF AMD
KMYR 271104Z 2711/2806 24008KT 6SM -RA SCT006 OVC090
      TEMPO 2715/2717 24025KT 2SM +SHRA BKN012
     FM271700 34012G20KT 6SM -RA BKN006 OVC012=



000
FTUS42 KILM 271104 AAA
TAFMYR
TAF AMD
KMYR 271104Z 2711/2806 24008KT 6SM -RA SCT006 OVC090
      TEMPO 2715/2717 24025KT 2SM +SHRA BKN012
     FM271700 34012G20KT 6SM -RA BKN006 OVC012=



000
FTUS42 KILM 270936 AAA
TAFCRE
TAF AMD
KCRE 270936Z 2710/2806 22009KT 6SM -SHRA BR SCT005 BKN040 OVC100
      TEMPO 2710/2712 4SM BR BKN005
     FM271200 24008KT 6SM BR VCSH BKN006 OVC090
      TEMPO 2715/2717 24025KT 1SM +TSRA BKN012CB
     FM271700 35012G20KT 6SM -RA BKN006 OVC012=



000
FTUS42 KILM 270523
TAFMYR
TAF
KMYR 270523Z 2706/2806 20011KT P6SM -SHRA OVC100
     FM270700 22008KT 5SM -SHRA BR FEW006 BKN040 OVC100
      TEMPO 2707/2710 3SM SHRA BR BKN006 BKN015
     FM271000 24008KT 6SM -RA BKN006 OVC090
      TEMPO 2715/2717 24025KT 1SM +TSRA BKN012CB
     FM271700 34012G20KT 6SM -RA BKN006 OVC012
      AMD LTD TO CLD VIS AND WIND TIL 271100=



000
FTUS42 KILM 270523
TAFLBT
TAF
KLBT 270523Z 2706/2806 22006KT P6SM SCT030 OVC100
     FM270900 23006KT P6SM VCSH BKN040 OVC100
      TEMPO 2709/2713 -SHRA SCT006 BKN015
     FM271300 23006KT 4SM -RA BR BKN006 OVC015
     FM271400 32013G17KT 2SM -RA BR OVC004
     FM271700 36010KT 6SM -RA BKN010 OVC030=



000
FTUS42 KILM 270523
TAFFLO
TAF
KFLO 270523Z 2706/2806 22008KT P6SM VCSH SCT040 OVC100
     FM270900 23006KT P6SM VCSH SCT008 BKN040 OVC100
      TEMPO 2710/2714 -SHRA BKN008
     FM271400 32010G17KT 2SM -RA BR OVC004
     FM271800 36010KT 6SM -RA BKN010 OVC030=



000
FTUS42 KILM 270523
TAFCRE
TAF
KCRE 270523Z 2706/2806 20011KT P6SM -SHRA FEW004 OVC100
     FM270700 22009KT 5SM -SHRA BR SCT005 BKN040 OVC100
      TEMPO 2707/2710 2SM SHRA BR BKN005
     FM271000 24008KT 6SM BR VCSH BKN006 OVC090
      TEMPO 2715/2717 24025KT 1SM +TSRA BKN012CB
     FM271700 35012G20KT 6SM -RA BKN006 OVC012=



000
FTUS42 KILM 270523
TAFILM
TAF
KILM 270523Z 2706/2806 20008KT P6SM -SHRA SCT060 OVC120
     FM270800 22008KT 6SM -SHRA BKN050 OVC100
      TEMPO 2708/2711 4SM SHRA BR FEW008 BKN025
     FM271200 24008KT 6SM BR VCSH BKN008 OVC090
      TEMPO 2716/2718 24025KT 1SM +TSRA BKN012CB
     FM271800 34012G20KT 6SM -RA BKN008 OVC012=



000
FTUS42 KILM 270523
TAFFLO
TAF
KFLO 270523Z 2706/2806 22008KT P6SM VCSH SCT040 OVC100
     FM270900 23006KT P6SM VCSH SCT008 BKN040 OVC100
      TEMPO 2710/2714 -SHRA BKN008
     FM271400 32010G17KT 2SM -RA BR OVC004
     FM271800 36010KT 6SM -RA BKN010 OVC030=



000
FTUS42 KILM 270523
TAFMYR
TAF
KMYR 270523Z 2706/2806 20011KT P6SM -SHRA OVC100
     FM270700 22008KT 5SM -SHRA BR FEW006 BKN040 OVC100
      TEMPO 2707/2710 3SM SHRA BR BKN006 BKN015
     FM271000 24008KT 6SM -RA BKN006 OVC090
      TEMPO 2715/2717 24025KT 1SM +TSRA BKN012CB
     FM271700 34012G20KT 6SM -RA BKN006 OVC012
      AMD LTD TO CLD VIS AND WIND TIL 271100=



000
FTUS42 KILM 270523
TAFLBT
TAF
KLBT 270523Z 2706/2806 22006KT P6SM SCT030 OVC100
     FM270900 23006KT P6SM VCSH BKN040 OVC100
      TEMPO 2709/2713 -SHRA SCT006 BKN015
     FM271300 23006KT 4SM -RA BR BKN006 OVC015
     FM271400 32013G17KT 2SM -RA BR OVC004
     FM271700 36010KT 6SM -RA BKN010 OVC030=



000
FTUS42 KILM 270523
TAFCRE
TAF
KCRE 270523Z 2706/2806 20011KT P6SM -SHRA FEW004 OVC100
     FM270700 22009KT 5SM -SHRA BR SCT005 BKN040 OVC100
      TEMPO 2707/2710 2SM SHRA BR BKN005
     FM271000 24008KT 6SM BR VCSH BKN006 OVC090
      TEMPO 2715/2717 24025KT 1SM +TSRA BKN012CB
     FM271700 35012G20KT 6SM -RA BKN006 OVC012=



000
FTUS42 KILM 270523
TAFILM
TAF
KILM 270523Z 2706/2806 20008KT P6SM -SHRA SCT060 OVC120
     FM270800 22008KT 6SM -SHRA BKN050 OVC100
      TEMPO 2708/2711 4SM SHRA BR FEW008 BKN025
     FM271200 24008KT 6SM BR VCSH BKN008 OVC090
      TEMPO 2716/2718 24025KT 1SM +TSRA BKN012CB
     FM271800 34012G20KT 6SM -RA BKN008 OVC012=



000
FTUS42 KILM 270234 CCA
TAFMYR
TAF COR
KMYR 270234Z 2700/2724 20012KT P6SM VCSH SCT015 BKN100
     FM270400 20011KT 6SM -RA BR SCT004 SCT015 BKN040
      TEMPO 2704/2708 4SM -RA BR SCT005 BKN015
     FM270800 23007KT 3SM SHRA BR BKN005 BKN015 OVC040
      TEMPO 2708/2712 2SM TSRA BR SCT005 BKN015CB
     FM271200 24008KT 6SM -RA BKN006 OVC090
      TEMPO 2715/2717 24025KT 1SM +TSRA BKN012CB
     FM271700 34012G20KT 6SM -RA BKN006 OVC012
      AMD LTD TO CLD VIS AND WIND 2704/2711=



000
FTUS42 KILM 262349 CCA
TAFCRE
TAF COR
KCRE 262349Z 2700/2724 22013KT P6SM VCSH SCT004 SCT015 BKN100
     FM270500 20011KT 5SM -RA BR SCT004 SCT015 BKN040
      TEMPO 2706/2708 3SM -RA BR BKN004 BKN015
     FM270800 23007KT 3SM SHRA BR BKN004 BKN015 OVC040
      TEMPO 2708/2712 2SM TSRA BR SCT004 BKN015CB
     FM271200 24008KT 6SM -RA BKN006 OVC090
      TEMPO 2715/2717 24025KT 1SM +TSRA BKN012CB
     FM271700 35012G20KT 6SM -RA BKN006 OVC012=



000
FTUS42 KILM 262349 CCA
TAFCRE
TAF COR
KCRE 262349Z 2700/2724 22013KT P6SM VCSH SCT004 SCT015 BKN100
     FM270500 20011KT 5SM -RA BR SCT004 SCT015 BKN040
      TEMPO 2706/2708 3SM -RA BR BKN004 BKN015
     FM270800 23007KT 3SM SHRA BR BKN004 BKN015 OVC040
      TEMPO 2708/2712 2SM TSRA BR SCT004 BKN015CB
     FM271200 24008KT 6SM -RA BKN006 OVC090
      TEMPO 2715/2717 24025KT 1SM +TSRA BKN012CB
     FM271700 35012G20KT 6SM -RA BKN006 OVC012=



000
FTUS42 KILM 262329
TAFLBT
TAF
KLBT 262329Z 2700/2724 19006KT P6SM SCT035 OVC100
     FM270700 23008KT 3SM -SHRA BR SCT015 BKN025
      TEMPO 2708/2712 1SM +TSRA SCT007 BKN015CB
     FM271200 23006KT 4SM -RA BR BKN006 OVC015
     FM271400 32013G17KT 2SM -RA BR OVC004
     FM271700 36010KT 6SM -RA BKN010 OVC030=



000
FTUS42 KILM 262329
TAFMYR
TAF
KMYR 262329Z 2700/2724 20012KT P6SM VCSH SCT015 BKN100
     FM270400 20011KT 6SM -RA BR SCT004 SCT015 BKN040
      TEMPO 2704/2708 4SM -RA BR SCT005 BKN015
     FM270800 23007KT 3SM SHRA BR BKN005 BKN015 OVC040
      TEMPO 2708/2712 2SM TSRA BR SCT005 BKN015CB
     FM271200 24008KT 6SM -RA BKN006 OVC090
      TEMPO 2715/2717 24025KT 1SM +TSRA BKN012CB
     FM271700 34012G20KT 6SM -RA BKN006 OVC012=



000
FTUS42 KILM 262329
TAFILM
TAF
KILM 262329Z 2700/2724 20011KT P6SM VCSH SCT015 BKN100
     FM270600 20008KT 6SM -RA BR SCT008 SCT015 BKN040
      TEMPO 2706/2709 4SM -RA BR SCT008 BKN015
     FM270900 23007KT 3SM SHRA BR BKN008 BKN015 OVC040
      TEMPO 2710/2714 2SM TSRA BR SCT008 BKN015CB
     FM271400 24008KT 6SM -RA BKN007 OVC090
      TEMPO 2716/2718 24025KT 1SM +TSRA BKN012CB
     FM271800 34012G20KT 6SM -RA BKN008 OVC012=



000
FTUS42 KILM 262329
TAFFLO
TAF
KFLO 262329Z 2700/2724 19008KT P6SM VCSH SCT030 BKN100
     FM270700 23008KT 3SM -SHRA BR SCT015 OVC080
      TEMPO 2709/2713 1SM +TSRA SCT007 BKN015CB
     FM271300 23006KT 4SM -RA BR BKN006 OVC015
     FM271500 32013G17KT 2SM -RA BR OVC004
     FM271800 36010KT 6SM -RA BKN010 OVC030=



000
FTUS42 KILM 262329
TAFCRE
TAF
KCRE 262329Z 2700/2724 22014KT P6SM VCSH SCT015 BKN100
      TEMPO 2700/2702 4SM BR SCT004
     FM270500 20011KT 5SM -RA BR SCT004 SCT015 BKN040
      TEMPO 2706/2708 3SM -RA BR BKN004 BKN015
     FM270800 23007KT 3SM SHRA BR BKN004 BKN015 OVC040
      TEMPO 2708/2712 2SM TSRA BR SCT004 BKN015CB
     FM271200 24008KT 6SM -RA BKN006 OVC090
      TEMPO 2715/2717 24025KT 1SM +TSRA BKN012CB
     FM271700 35012G20KT 6SM -RA BKN006 OVC012=



000
FTUS42 KILM 261751 CCA
TAFLBT
TAF COR
KLBT 261751Z 2618/2718 21011G16KT P6SM BKN035 OVC080
     FM270400 23008KT 3SM -SHRA BR SCT015 BKN025
      TEMPO 2708/2712 1SM TSRA SCT007 BKN012CB
     FM271500 34011G16KT 2SM -RA BR OVC010=



000
FTUS42 KILM 261749 CCB
TAFFLO
TAF COR
KFLO 261749Z 2618/2718 21011G16KT P6SM SCT030 BKN100
     FM270400 23008KT 3SM -SHRA BR SCT015 BKN025
      TEMPO 2709/2713 1SM TSRA SCT007 BKN015CB
     FM271500 32013G17KT 2SM -RA BR OVC010=



000
FTUS42 KILM 261748 CCA
TAFFLO
TAF COR
KFLO 261748Z 2618/2718 24012G18KT P6SM SCT030 BKN100
     FM262000 20013KT P6SM SCT035 BKN120
     FM270500 23008KT 3SM -SHRA BR SCT015 BKN025
      TEMPO 2709/2713 1SM TSRA SCT007 BKN015CB
     FM271500 32013G17KT 2SM -RA BR OVC010=



000
FTUS42 KILM 261746 CCA
TAFMYR
TAF COR
KMYR 261746Z 2618/2718 20012G16KT P6SM SCT030 BKN100
     FM270400 22009KT 3SM -SHRA BR SCT015 BKN025
      TEMPO 2711/2715 1SM TSRA SCT007 BKN012CB
     FM271700 30013KT 2SM -RA BR OVC015=



000
FTUS42 KILM 261746 CCA
TAFMYR
TAF COR
KMYR 261746Z 2618/2718 20012G16KT P6SM SCT030 BKN100
     FM270400 22009KT 3SM -SHRA BR SCT015 BKN025
      TEMPO 2711/2715 1SM TSRA SCT007 BKN012CB
     FM271700 30013KT 2SM -RA BR OVC015=



000
FTUS42 KILM 261744 CCA
TAFCRE
TAF COR
KCRE 261744Z 2618/2718 19012G16KT P6SM SCT030 BKN100
     FM270400 22009KT 3SM -SHRA BR SCT015 BKN025
      TEMPO 2710/2714 1SM TSRA SCT007 BKN012CB
     FM271700 30013KT 2SM -RA BR OVC015=



000
FTUS42 KILM 261744 CCA
TAFCRE
TAF COR
KCRE 261744Z 2618/2718 19012G16KT P6SM SCT030 BKN100
     FM270400 22009KT 3SM -SHRA BR SCT015 BKN025
      TEMPO 2710/2714 1SM TSRA SCT007 BKN012CB
     FM271700 30013KT 2SM -RA BR OVC015=



000
FTUS42 KILM 261744 CCB
TAFILM
TAF COR
KILM 261744Z 2618/2718 24012G18KT P6SM SCT030 BKN100
     FM262000 20013KT P6SM SCT035 BKN120
     FM270500 23008KT 3SM -SHRA BR SCT015 BKN025
      TEMPO 2710/2714 1SM TSRA SCT007 BKN015CB
     FM271600 31013KT 2SM -RA BR OVC015=



000
FTUS42 KILM 261744 CCB
TAFILM
TAF COR
KILM 261744Z 2618/2718 24012G18KT P6SM SCT030 BKN100
     FM262000 20013KT P6SM SCT035 BKN120
     FM270500 23008KT 3SM -SHRA BR SCT015 BKN025
      TEMPO 2710/2714 1SM TSRA SCT007 BKN015CB
     FM271600 31013KT 2SM -RA BR OVC015=



000
FTUS42 KILM 261741 CCA
TAFILM
TAF COR
KILM 261741Z 2618/2718 24012G18KT P6SM SCT030 BKN100
     FM262000 20013KT P6SM SCT035 BKN120
     FM270500 23008KT 3SM -SHRA BR SCT015 BKN025
      TEMPO 2710/2714 1SM TSRA SCT007 BKN015CB
     FM271700 32013KT 2SM -RA BR OVC008=



000
FTUS42 KILM 261741 CCA
TAFILM
TAF COR
KILM 261741Z 2618/2718 24012G18KT P6SM SCT030 BKN100
     FM262000 20013KT P6SM SCT035 BKN120
     FM270500 23008KT 3SM -SHRA BR SCT015 BKN025
      TEMPO 2710/2714 1SM TSRA SCT007 BKN015CB
     FM271700 32013KT 2SM -RA BR OVC008=



000
FTUS42 KILM 261739
TAFFLO
TAF
KFLO 261739Z 2618/2718 23011KT P6SM BKN025
     FM270000 20010KT P6SM VCSH OVC100
     FM270700 21008KT 5SM -SHRA BR BKN040
     FM271000 21007KT 3SM -SHRA BR BKN009
     FM271500 34014G21KT 5SM BR VCSH BKN014=



000
FTUS42 KILM 261739
TAFILM
TAF
KILM 261739Z 2618/2718 24012G18KT P6SM SCT030 BKN100
     FM262000 20013KT P6SM SCT035 BKN120
     FM270500 23008KT 3SM -SHRA BR BKN025
      TEMPO 2710/2714 1SM SHRA BKN015
     FM271700 32013KT 2SM -RA BR OVC008=



000
FTUS42 KILM 261739
TAFLBT
TAF
KLBT 261739Z 2618/2718 22010KT P6SM SCT015 BKN050
     FM262000 19012KT P6SM SCT015 SCT050
     FM270600 20008KT 1/2SM -SHRA FG BKN004
     FM271300 21012G18KT 3SM SHRA BKN008
     FM271700 32013KT 2SM -RA BR OVC008=



000
FTUS42 KILM 261739
TAFCRE
TAF
KCRE 261739Z 2618/2718 22010KT P6SM SCT015 BKN050
     FM262000 19012KT P6SM SCT015 SCT050
     FM270600 20008KT 1/2SM -SHRA FG BKN004
     FM271300 21012G18KT 3SM SHRA BKN008
     FM271700 32013KT 2SM -RA BR OVC008=



000
FTUS42 KILM 261739
TAFILM
TAF
KILM 261739Z 2618/2718 24012G18KT P6SM SCT030 BKN100
     FM262000 20013KT P6SM SCT035 BKN120
     FM270500 23008KT 3SM -SHRA BR BKN025
      TEMPO 2710/2714 1SM SHRA BKN015
     FM271700 32013KT 2SM -RA BR OVC008=



000
FTUS42 KILM 261739
TAFMYR
TAF
KMYR 261739Z 2618/2718 22010KT P6SM SCT015 BKN050
     FM262000 19012KT P6SM SCT015 SCT050
     FM270600 20008KT 1/2SM -SHRA FG BKN004
     FM271300 21012G18KT 3SM SHRA BKN008
     FM271700 32013KT 2SM -RA BR OVC008=



000
FTUS42 KILM 261739
TAFLBT
TAF
KLBT 261739Z 2618/2718 22010KT P6SM SCT015 BKN050
     FM262000 19012KT P6SM SCT015 SCT050
     FM270600 20008KT 1/2SM -SHRA FG BKN004
     FM271300 21012G18KT 3SM SHRA BKN008
     FM271700 32013KT 2SM -RA BR OVC008=



000
FTUS42 KILM 261739
TAFFLO
TAF
KFLO 261739Z 2618/2718 23011KT P6SM BKN025
     FM270000 20010KT P6SM VCSH OVC100
     FM270700 21008KT 5SM -SHRA BR BKN040
     FM271000 21007KT 3SM -SHRA BR BKN009
     FM271500 34014G21KT 5SM BR VCSH BKN014=



000
FTUS42 KILM 261739
TAFCRE
TAF
KCRE 261739Z 2618/2718 22010KT P6SM SCT015 BKN050
     FM262000 19012KT P6SM SCT015 SCT050
     FM270600 20008KT 1/2SM -SHRA FG BKN004
     FM271300 21012G18KT 3SM SHRA BKN008
     FM271700 32013KT 2SM -RA BR OVC008=



000
FTUS42 KILM 261739
TAFMYR
TAF
KMYR 261739Z 2618/2718 22010KT P6SM SCT015 BKN050
     FM262000 19012KT P6SM SCT015 SCT050
     FM270600 20008KT 1/2SM -SHRA FG BKN004
     FM271300 21012G18KT 3SM SHRA BKN008
     FM271700 32013KT 2SM -RA BR OVC008=



000
FTUS42 KILM 261603 AAB
TAFILM
TAF AMD
KILM 261603Z 2616/2712 23012G17KT P6SM SCT025 BKN120
     FM262100 20012KT P6SM SCT015 BKN090
     FM270400 21010KT P6SM -SHRA BKN025 OVC045=



000
FTUS42 KILM 261603 AAB
TAFILM
TAF AMD
KILM 261603Z 2616/2712 23012G17KT P6SM SCT025 BKN120
     FM262100 20012KT P6SM SCT015 BKN090
     FM270400 21010KT P6SM -SHRA BKN025 OVC045=



000
FTUS42 KILM 261601 AAA
TAFLBT
TAF AMD
KLBT 261601Z 2616/2712 22010G17KT P6SM VCSH BKN030 OVC060
     FM262000 20010KT P6SM SCT050 BKN090
     FM270400 20007KT 6SM -SHRA BKN025 OVC100=



000
FTUS42 KILM 261558 AAC
TAFMYR
TAF AMD
KMYR 261558Z 2616/2712 22012G16KT P6SM SCT015 BKN030
     FM261900 19013G18KT P6SM SCT025 BKN040
     FM270400 22010KT P6SM -SHRA SCT010 BKN025=



000
FTUS42 KILM 261558 AAC
TAFMYR
TAF AMD
KMYR 261558Z 2616/2712 22012G16KT P6SM SCT015 BKN030
     FM261900 19013G18KT P6SM SCT025 BKN040
     FM270400 22010KT P6SM -SHRA SCT010 BKN025=



000
FTUS42 KILM 261556 AAB
TAFCRE
TAF AMD
KCRE 261556Z 2616/2712 22012G17KT P6SM SCT025 BKN040
     FM262000 20014G18KT P6SM VCSH SCT015 BKN120
     FM270400 22010KT P6SM -SHRA BKN030 OVC100=



000
FTUS42 KILM 261505 AAA
TAFFLO
TAF AMD
KFLO 261505Z 2615/2712 22010G16KT P6SM BKN015 BKN050
     FM261800 23011KT P6SM VCSH SCT050 BKN100
     FM270000 20010KT P6SM VCSH OVC100=



000
FTUS42 KILM 261505 AAB
TAFMYR
TAF AMD
KMYR 261505Z 2615/2712 22012G16KT P6SM SCT016 SCT040
     FM261900 19015KT P6SM VCSH SCT015 BKN040
     FM270000 19010KT P6SM -SHRA SCT050 BKN150=



000
FTUS42 KILM 261451 AAB
TAFILM
TAF AMD
KILM 261451Z 2615/2712 22008KT 2SM SHRA BKN008
     FM261530 22010KT P6SM VCSH SCT015 BKN050
     FM261900 19012KT P6SM SCT015 BKN050
     FM270000 19010KT P6SM -SHRA SCT050 BKN150=



000
FTUS42 KILM 261353 AAA
TAFMYR
TAF AMD
KMYR 261353Z 2614/2712 22012G16KT P6SM SCT012 BKN050
     FM261900 19015KT P6SM VCSH SCT015 BKN040
     FM270000 19010KT P6SM -SHRA SCT050 BKN150=



000
FTUS42 KILM 261353 AAA
TAFMYR
TAF AMD
KMYR 261353Z 2614/2712 22012G16KT P6SM SCT012 BKN050
     FM261900 19015KT P6SM VCSH SCT015 BKN040
     FM270000 19010KT P6SM -SHRA SCT050 BKN150=



000
FTUS42 KILM 261329 AAA
TAFCRE
TAF AMD
KCRE 261329Z 2613/2712 20008KT P6SM SCT018 OVC035
     FM261400 20010G18KT P6SM VCSH SCT012 BKN040
     FM261900 20014KT P6SM VCSH SCT015 BKN050
     FM270000 21010KT P6SM -SHRA SCT050 BKN150=



000
FTUS42 KILM 261329 AAA
TAFCRE
TAF AMD
KCRE 261329Z 2613/2712 20008KT P6SM SCT018 OVC035
     FM261400 20010G18KT P6SM VCSH SCT012 BKN040
     FM261900 20014KT P6SM VCSH SCT015 BKN050
     FM270000 21010KT P6SM -SHRA SCT050 BKN150=



000
FTUS42 KILM 261317 AAA
TAFILM
TAF AMD
KILM 261317Z 2613/2712 17012KT 6SM SHRA BKN014
      TEMPO 2613/2615 4SM -SHRA BKN018
     FM261900 19012KT P6SM SCT015 BKN050
     FM270000 19010KT P6SM -SHRA SCT050 BKN150=



000
FTUS42 KILM 261317 AAA
TAFILM
TAF AMD
KILM 261317Z 2613/2712 17012KT 6SM SHRA BKN014
      TEMPO 2613/2615 4SM -SHRA BKN018
     FM261900 19012KT P6SM SCT015 BKN050
     FM270000 19010KT P6SM -SHRA SCT050 BKN150=



000
FTUS42 KILM 261144 CCA
TAFCRE
TAF COR
KCRE 261144Z 2612/2712 14008KT P6SM -SHRA BKN018 OVC035
      TEMPO 2612/2614 3SM -RA BR BKN007
     FM261400 20010G18KT P6SM VCSH SCT012 BKN030
     FM261900 20014KT P6SM VCSH SCT015 BKN050
     FM270000 21010KT P6SM -SHRA SCT050 BKN150=



000
FTUS42 KILM 261144 CCB
TAFILM
TAF COR
KILM 261144Z 2612/2712 17012KT 6SM SHRA SCT015 BKN025
      TEMPO 2612/2615 2SM +SHRA OVC015
     FM261900 19012KT P6SM SCT015 BKN050
     FM270000 19010KT P6SM -SHRA SCT050 BKN150=



000
FTUS42 KILM 261144 CCA
TAFCRE
TAF COR
KCRE 261144Z 2612/2712 14008KT P6SM -SHRA BKN018 OVC035
      TEMPO 2612/2614 3SM -RA BR BKN007
     FM261400 20010G18KT P6SM VCSH SCT012 BKN030
     FM261900 20014KT P6SM VCSH SCT015 BKN050
     FM270000 21010KT P6SM -SHRA SCT050 BKN150=



000
FTUS42 KILM 261144 CCB
TAFILM
TAF COR
KILM 261144Z 2612/2712 17012KT 6SM SHRA SCT015 BKN025
      TEMPO 2612/2615 2SM +SHRA OVC015
     FM261900 19012KT P6SM SCT015 BKN050
     FM270000 19010KT P6SM -SHRA SCT050 BKN150=



000
FTUS42 KILM 261143 CCA
TAFMYR
TAF COR
KMYR 261143Z 2612/2712 18010KT 1/2SM FG BKN003
      TEMPO 2612/2615 3SM -SHRA BKN014
     FM261500 20012G18KT P6SM VCSH SCT012 BKN030
     FM261900 19015KT P6SM VCSH SCT015 BKN040
     FM270000 19010KT P6SM -SHRA SCT050 BKN150=



000
FTUS42 KILM 261143 CCA
TAFMYR
TAF COR
KMYR 261143Z 2612/2712 18010KT 1/2SM FG BKN003
      TEMPO 2612/2615 3SM -SHRA BKN014
     FM261500 20012G18KT P6SM VCSH SCT012 BKN030
     FM261900 19015KT P6SM VCSH SCT015 BKN040
     FM270000 19010KT P6SM -SHRA SCT050 BKN150=



000
FTUS42 KILM 261120
TAFLBT
TAF
KLBT 261120Z 2612/2712 13005KT 5SM BR VCSH OVC007
      TEMPO 2612/2615 5SM -SHRA BKN012
     FM261500 22010G20KT P6SM VCSH SCT015 BKN050
     FM261800 22010KT P6SM VCSH SCT050 BKN100
     FM270000 19010KT P6SM VCSH OVC100=



000
FTUS42 KILM 261120
TAFILM
TAF
KILM 261120Z 2612/2712 21012G20KT 6SM SHRA SCT015 BKN025
      TEMPO 2612/2615 2SM +SHRA OVC015
     FM261900 19012KT P6SM SCT015 BKN050
     FM270000 19010KT P6SM -SHRA SCT050 BKN150=



000
FTUS42 KILM 261120
TAFFLO
TAF
KFLO 261120Z 2612/2712 17004KT 5SM BR VCSH SCT007 BKN045
      TEMPO 2612/2614 BKN007
     FM261400 22010G20KT P6SM VCSH SCT015 BKN050
     FM261800 23011KT P6SM VCSH SCT050 BKN100
     FM270000 20010KT P6SM VCSH OVC100=



000
FTUS42 KILM 261120
TAFCRE
TAF
KCRE 261120Z 2612/2712 14008KT P6SM -SHRA SCT018 OVC035
     FM261400 20010G18KT P6SM VCSH SCT012 BKN030
     FM261900 20014KT P6SM VCSH SCT015 BKN050
     FM270000 21010KT P6SM -SHRA SCT050 BKN150=



000
FTUS42 KILM 261120
TAFMYR
TAF
KMYR 261120Z 2612/2712 15010KT 6SM -SHRA BR SCT018 OVC035
     FM261400 20012G18KT P6SM VCSH SCT012 BKN030
     FM261900 19015KT P6SM VCSH SCT015 BKN040
     FM270000 19010KT P6SM -SHRA SCT050 BKN150=



000
FTUS42 KILM 260951 AAB
TAFFLO
TAF AMD
KFLO 260951Z 2610/2706 17004KT 5SM BR VCSH SCT006 BKN045
      TEMPO 2610/2612 5SM BR BKN006
     FM261400 22010G20KT P6SM VCSH SCT015 BKN050
     FM261800 23011KT P6SM VCSH SCT050 BKN100
     FM270000 20010KT P6SM VCSH OVC100=



000
FTUS42 KILM 260951 AAB
TAFFLO
TAF AMD
KFLO 260951Z 2610/2706 17004KT 5SM BR VCSH SCT006 BKN045
      TEMPO 2610/2612 5SM BR BKN006
     FM261400 22010G20KT P6SM VCSH SCT015 BKN050
     FM261800 23011KT P6SM VCSH SCT050 BKN100
     FM270000 20010KT P6SM VCSH OVC100=



000
FTUS42 KILM 260816 AAA
TAFFLO
TAF AMD
KFLO 260816Z 2608/2706 17004KT 5SM BR VCSH OVC004
      TEMPO 2608/2612 3SM BR OVC003
     FM261400 22010G20KT P6SM VCSH SCT015 BKN050
     FM261800 23011KT P6SM VCSH SCT050 BKN100
     FM270000 20010KT P6SM VCSH OVC100=



000
FTUS42 KILM 260816 AAA
TAFFLO
TAF AMD
KFLO 260816Z 2608/2706 17004KT 5SM BR VCSH OVC004
      TEMPO 2608/2612 3SM BR OVC003
     FM261400 22010G20KT P6SM VCSH SCT015 BKN050
     FM261800 23011KT P6SM VCSH SCT050 BKN100
     FM270000 20010KT P6SM VCSH OVC100=



000
FTUS42 KILM 260815 AAB
TAFILM
TAF AMD
KILM 260815Z 2608/2706 16010KT P6SM -SHRA SCT020 BKN035 BKN060
      TEMPO 2608/2610 3SM +SHRA BKN018
     FM261200 21012G20KT 6SM SHRA SCT015 BKN025
      TEMPO 2612/2616 3SM TSRA OVC015CB
     FM261900 19012KT P6SM SCT015 BKN050
     FM270000 19010KT P6SM -SHRA SCT050 BKN150=



000
FTUS42 KILM 260815 AAB
TAFILM
TAF AMD
KILM 260815Z 2608/2706 16010KT P6SM -SHRA SCT020 BKN035 BKN060
      TEMPO 2608/2610 3SM +SHRA BKN018
     FM261200 21012G20KT 6SM SHRA SCT015 BKN025
      TEMPO 2612/2616 3SM TSRA OVC015CB
     FM261900 19012KT P6SM SCT015 BKN050
     FM270000 19010KT P6SM -SHRA SCT050 BKN150=



000
FTUS42 KILM 260649 AAA
TAFLBT
TAF AMD
KLBT 260649Z 2607/2706 11004KT 5SM -SHRA BR SCT015 BKN050
      TEMPO 2607/2608 3SM TSRA BKN015 OVC030CB
     FM260800 13005KT 5SM BR VCSH OVC007
     FM261400 22010G20KT P6SM VCSH SCT015 BKN050
     FM261800 22010KT P6SM VCSH SCT050 BKN100
     FM270000 19010KT P6SM VCSH OVC100=



000
FTUS42 KILM 260605 CCA
TAFFLO
TAF COR
KFLO 260605Z 2606/2706 15004KT 5SM BR VCSH OVC007
     FM261400 22010G20KT P6SM VCSH SCT015 BKN050
     FM261800 23011KT P6SM VCSH SCT050 BKN100
     FM270000 20010KT P6SM VCSH OVC100=



000
FTUS42 KILM 260605 CCA
TAFFLO
TAF COR
KFLO 260605Z 2606/2706 15004KT 5SM BR VCSH OVC007
     FM261400 22010G20KT P6SM VCSH SCT015 BKN050
     FM261800 23011KT P6SM VCSH SCT050 BKN100
     FM270000 20010KT P6SM VCSH OVC100=



000
FTUS42 KILM 260521
TAFCRE
TAF
KCRE 260521Z 2606/2706 14008KT P6SM -SHRA SCT018 OVC035
      TEMPO 2607/2611 3SM SHRA BR SCT006 OVC012
     FM261400 20010G18KT P6SM VCSH SCT012 BKN030
     FM261900 20014KT P6SM VCSH SCT015 BKN050
     FM270000 21010KT P6SM -SHRA SCT050 BKN150=



000
FTUS42 KILM 260521
TAFMYR
TAF
KMYR 260521Z 2606/2706 15010KT 6SM -SHRA BR SCT018 OVC035
      TEMPO 2607/2611 3SM SHRA BR SCT005 OVC012
     FM261400 20012G18KT P6SM VCSH SCT012 BKN030
     FM261900 19015KT P6SM VCSH SCT015 BKN040
     FM270000 19010KT P6SM -SHRA SCT050 BKN150
      AMD LTD TO CLD VIS AND WIND TIL 261100=



000
FTUS42 KILM 260521
TAFFLO
TAF
KFLO 260521Z 2606/2706 13004KT 6SM -SHRA BR SCT007 BKN035
     FM260700 15004KT 5SM BR VCSH OVC007
     FM261400 22010G20KT P6SM VCSH SCT015 BKN050
     FM261800 23011KT P6SM VCSH SCT050 BKN100
     FM270000 20010KT P6SM VCSH OVC100=



000
FTUS42 KILM 260521
TAFLBT
TAF
KLBT 260521Z 2606/2706 11004KT 5SM -SHRA BR SCT007 BKN050
     FM260730 13005KT 5SM BR VCSH OVC007
     FM261400 22010G20KT P6SM VCSH SCT015 BKN050
     FM261800 22010KT P6SM VCSH SCT050 BKN100
     FM270000 19010KT P6SM VCSH OVC100=



000
FTUS42 KILM 260521
TAFILM
TAF
KILM 260521Z 2606/2706 16008KT P6SM -SHRA SCT020 BKN035 BKN060
      TEMPO 2610/2612 5SM SHRA BKN018
     FM261200 21012G20KT 6SM SHRA SCT015 BKN025
      TEMPO 2612/2616 3SM TSRA OVC015CB
     FM261900 19012KT P6SM SCT015 BKN050
     FM270000 19010KT P6SM -SHRA SCT050 BKN150=



000
FTUS42 KILM 260520
TAFILM
TAF
KILM 260520Z 2606/2706 16008KT P6SM -SHRA SCT020 BKN035 BKN060
      TEMPO 2610/2612 5SM SHRA BKN018
     FM261200 21012G20KT 6SM SHRA SCT015 BKN025
      TEMPO 2612/2615 3SM TSRA OVC015CB
     FM261700 19012KT P6SM SCT015 BKN050
     FM270000 19010KT P6SM -SHRA SCT050 BKN150=



000
FTUS42 KILM 260520
TAFCRE
TAF
KCRE 260520Z 2606/2706 14008KT P6SM -SHRA SCT018 OVC035
      TEMPO 2607/2611 3SM SHRA BR SCT006 OVC012
     FM261200 20010G18KT P6SM VCSH SCT012 BKN030
     FM261600 20014KT P6SM VCSH SCT015 BKN050
     FM270000 21010KT P6SM -SHRA SCT050 BKN150=



000
FTUS42 KILM 260520
TAFMYR
TAF
KMYR 260520Z 2606/2706 15010KT 6SM -SHRA BR SCT018 OVC035
      TEMPO 2607/2611 3SM SHRA BR SCT005 OVC012
     FM261200 20012G18KT P6SM VCSH SCT012 BKN030
     FM261600 19015KT P6SM VCSH SCT015 BKN040
     FM270000 19010KT P6SM -SHRA SCT050 BKN150
      AMD LTD TO CLD VIS AND WIND TIL 261100=



000
FTUS42 KILM 260520
TAFFLO
TAF
KFLO 260520Z 2606/2706 13004KT 6SM -SHRA BR SCT007 BKN025
     FM260700 15004KT 5SM BR VCSH OVC007
     FM261400 22010G20KT P6SM SCT015 BKN050
     FM261800 23011KT P6SM VCSH SCT050 BKN100
     FM270000 20010KT P6SM VCSH OVC100=



000
FTUS42 KILM 260520
TAFLBT
TAF
KLBT 260520Z 2606/2706 11004KT 4SM SHRA BR SCT007 BKN040
     FM260730 13005KT 5SM BR VCSH OVC007
     FM261400 22010G20KT P6SM SCT015 BKN050
     FM261800 22010KT P6SM VCSH SCT050 BKN100
     FM270000 19010KT P6SM VCSH OVC100=



000
FTUS42 KILM 252343 CCA
TAFMYR
TAF COR
KMYR 252343Z 2600/2624 11009KT P6SM VCSH SCT010 SCT020 BKN040
      TEMPO 2600/2604 6SM -RA BR BKN020
     FM260500 15009KT 6SM -SHRA BR SCT007 BKN010 OVC025
     FM261400 20012G18KT P6SM VCSH SCT012 BKN030
     FM261900 19015KT P6SM -SHRA SCT015 BKN040
      AMD LTD TO CLD VIS AND WIND 2604/2611=



000
FTUS42 KILM 252343 CCA
TAFMYR
TAF COR
KMYR 252343Z 2600/2624 11009KT P6SM VCSH SCT010 SCT020 BKN040
      TEMPO 2600/2604 6SM -RA BR BKN020
     FM260500 15009KT 6SM -SHRA BR SCT007 BKN010 OVC025
     FM261400 20012G18KT P6SM VCSH SCT012 BKN030
     FM261900 19015KT P6SM -SHRA SCT015 BKN040
      AMD LTD TO CLD VIS AND WIND 2604/2611=



000
FTUS42 KILM 252336
TAFILM
TAF
KILM 252336Z 2600/2624 13008KT P6SM VCSH SCT015 BKN040 OVC060
     FM260600 16008KT P6SM -SHRA SCT007 BKN010 OVC025
     FM261400 21012G20KT P6SM VCSH SCT012 BKN030
     FM261900 19012KT P6SM -SHRA SCT015 BKN040=



000
FTUS42 KILM 252336
TAFFLO
TAF
KFLO 252336Z 2600/2624 12008KT P6SM VCSH SCT015 SCT025 OVC050
      TEMPO 2600/2604 SCT007 BKN015
     FM260500 16004KT 5SM BR VCSH BKN007 BKN025
     FM261400 22010G20KT P6SM SCT015 BKN050
     FM261800 23011KT P6SM SCT050 BKN100=



000
FTUS42 KILM 252336
TAFCRE
TAF
KCRE 252336Z 2600/2624 09008KT P6SM VCSH SCT010 SCT025 OVC060
      TEMPO 2600/2604 6SM -RA BR BKN020
     FM260500 14008KT 6SM -SHRA BR SCT007 BKN010 OVC025
     FM261400 20010G18KT P6SM VCSH SCT012 BKN030
     FM261900 20014KT P6SM -SHRA SCT015 BKN040=



000
FTUS42 KILM 252336
TAFLBT
TAF
KLBT 252336Z 2600/2624 14005KT P6SM VCSH SCT020 BKN040 OVC050
     FM260500 16004KT 6SM BR VCSH BKN007 BKN025
     FM261400 22010G20KT P6SM SCT015 BKN050
     FM261800 22010KT P6SM SCT050 BKN100=



000
FTUS42 KILM 252336
TAFMYR
TAF
KMYR 252336Z 2600/2624 11009KT P6SM VCSH SCT010 BKN020 OVC060
      TEMPO 2600/2604 6SM -RA BR BKN020
     FM260500 15009KT 6SM -SHRA BR SCT007 BKN010 OVC025
     FM261400 20012G18KT P6SM VCSH SCT012 BKN030
     FM261900 19015KT P6SM -SHRA SCT015 BKN040
      AMD LTD TO CLD VIS AND WIND 2604/2611=



000
FTUS42 KILM 252105 AAA
TAFCRE
TAF AMD
KCRE 252105Z 2521/2618 10011G17KT P6SM SCT025 BKN050 BKN100
      TEMPO 2521/2523 4SM -RA BR
     FM252300 14010G17KT P6SM VCSH SCT010 BKN020 OVC060
     FM260200 14008KT 5SM -SHRA SCT010 BKN020 OVC050
     FM261300 20012G21KT P6SM VCSH SCT012 BKN035=



000
FTUS42 KILM 252105 AAA
TAFCRE
TAF AMD
KCRE 252105Z 2521/2618 10011G17KT P6SM SCT025 BKN050 BKN100
      TEMPO 2521/2523 4SM -RA BR
     FM252300 14010G17KT P6SM VCSH SCT010 BKN020 OVC060
     FM260200 14008KT 5SM -SHRA SCT010 BKN020 OVC050
     FM261300 20012G21KT P6SM VCSH SCT012 BKN035=



000
FTUS42 KILM 251952 AAA
TAFMYR
TAF AMD
KMYR 251952Z 2520/2618 12012G17KT P6SM SCT025 BKN060
      TEMPO 2520/2524 3SM -SHRA SCT007 BKN025
     FM260000 14010G17KT P6SM VCSH SCT010 BKN020 OVC060
     FM260100 14008KT 5SM -SHRA SCT010 BKN020 OVC050
     FM261200 20012G21KT P6SM VCSH SCT012 BKN030=



000
FTUS42 KILM 251951 AAA
TAFFLO
TAF AMD
KFLO 251951Z 2520/2618 13009KT P6SM VCSH SCT025 BKN080
      TEMPO 2520/2524 3SM -SHRA BKN025
     FM260000 14005KT P6SM VCSH BKN015 BKN025 OVC080
     FM260500 16004KT 3SM BR BKN006 BKN025
     FM261400 22010G20KT P6SM SCT015 SCT080=



000
FTUS42 KILM 251951 AAA
TAFFLO
TAF AMD
KFLO 251951Z 2520/2618 13009KT P6SM VCSH SCT025 BKN080
      TEMPO 2520/2524 3SM -SHRA BKN025
     FM260000 14005KT P6SM VCSH BKN015 BKN025 OVC080
     FM260500 16004KT 3SM BR BKN006 BKN025
     FM261400 22010G20KT P6SM SCT015 SCT080=



000
FTUS42 KILM 251735
TAFLBT
TAF
KLBT 251735Z 2518/2618 13009KT P6SM VCSH SCT025 BKN080
      TEMPO 2520/2524 BKN025
     FM260000 14005KT P6SM VCSH BKN015 BKN025 OVC080
     FM260500 16004KT 3SM BR BKN006 BKN025
     FM261400 22010G20KT P6SM SCT015 SCT080=



000
FTUS42 KILM 251735
TAFMYR
TAF
KMYR 251735Z 2518/2618 10012G17KT P6SM SCT025 BKN100
     FM252200 14010G17KT P6SM VCSH SCT010 BKN020 OVC060
     FM260100 14008KT 5SM -SHRA SCT010 BKN020 OVC050
     FM261200 20012G21KT P6SM VCSH SCT012 BKN030=



000
FTUS42 KILM 251735
TAFCRE
TAF
KCRE 251735Z 2518/2618 10011G17KT P6SM SCT025 BKN100
     FM252300 14010G17KT P6SM VCSH SCT010 BKN020 OVC060
     FM260200 14008KT 5SM -SHRA SCT010 BKN020 OVC050
     FM261300 20012G21KT P6SM VCSH SCT012 BKN035=



000
FTUS42 KILM 251735
TAFILM
TAF
KILM 251735Z 2518/2618 10012G17KT P6SM SCT025 BKN100
     FM260000 13008KT P6SM SCT010 BKN025 OVC060
     FM260400 16008KT 5SM -SHRA BKN010 BKN035 OVC050
     FM261400 20012G21KT P6SM VCSH SCT012 BKN040=



000
FTUS42 KILM 251735
TAFFLO
TAF
KFLO 251735Z 2518/2618 13009KT P6SM VCSH SCT025 BKN080
      TEMPO 2520/2524 BKN025
     FM260000 14005KT P6SM VCSH BKN015 BKN025 OVC080
     FM260500 16004KT 3SM BR BKN006 BKN025
     FM261400 22010G20KT P6SM SCT015 SCT080=



000
FTUS42 KILM 251156 CCC
TAFILM
TAF COR
KILM 251156Z 2512/2612 04006KT P6SM SCT030 BKN080
      TEMPO 2512/2516 BKN030
     FM251600 12008KT P6SM BKN025 BKN080
     FM252100 14009KT P6SM SCT015 BKN040 OVC060
     FM260600 16008KT P6SM VCSH BKN010 BKN035=



000
FTUS42 KILM 251156 CCC
TAFILM
TAF COR
KILM 251156Z 2512/2612 04006KT P6SM SCT030 BKN080
      TEMPO 2512/2516 BKN030
     FM251600 12008KT P6SM BKN025 BKN080
     FM252100 14009KT P6SM SCT015 BKN040 OVC060
     FM260600 16008KT P6SM VCSH BKN010 BKN035=



000
FTUS42 KILM 251151 CCB
TAFILM
TAF COR
KILM 251151Z 2512/2612 05006KT P6SM SCT030 SCT080
      TEMPO 2512/2516 BKN030
     FM251600 12008KT P6SM BKN025 BKN080
     FM252100 14009KT P6SM SCT015 BKN040 OVC060
     FM260600 16008KT P6SM VCSH BKN010 BKN035=



000
FTUS42 KILM 251151 CCB
TAFILM
TAF COR
KILM 251151Z 2512/2612 05006KT P6SM SCT030 SCT080
      TEMPO 2512/2516 BKN030
     FM251600 12008KT P6SM BKN025 BKN080
     FM252100 14009KT P6SM SCT015 BKN040 OVC060
     FM260600 16008KT P6SM VCSH BKN010 BKN035=



000
FTUS42 KILM 251138 CCA
TAFLBT
TAF COR
KLBT 251138Z 2512/2612 08008KT P6SM SCT012 BKN090
      TEMPO 2512/2514 BKN012
     FM251800 12008KT P6SM VCSH BKN025 OVC080
     FM260300 13005KT P6SM VCSH BKN015 BKN025 OVC080
     FM260700 15004KT 3SM BR BKN006 BKN025=



000
FTUS42 KILM 251138 CCA
TAFLBT
TAF COR
KLBT 251138Z 2512/2612 08008KT P6SM SCT012 BKN090
      TEMPO 2512/2514 BKN012
     FM251800 12008KT P6SM VCSH BKN025 OVC080
     FM260300 13005KT P6SM VCSH BKN015 BKN025 OVC080
     FM260700 15004KT 3SM BR BKN006 BKN025=



000
FTUS42 KILM 251134
TAFILM
TAF
KILM 251134Z 2512/2612 05006KT P6SM SCT030 SCT080
     FM251600 12008KT P6SM BKN025 BKN080
     FM252100 14009KT P6SM SCT015 BKN040 OVC060
     FM260600 16008KT P6SM VCSH BKN010 BKN035=



000
FTUS42 KILM 251134
TAFCRE
TAF
KCRE 251134Z 2512/2612 05006KT P6SM FEW009 SCT030 SCT080
     FM251600 13009KT P6SM BKN025 BKN080
     FM252100 15013KT P6SM SCT015 BKN040 OVC060
     FM260300 16008KT 6SM -SHRA BKN010 BKN035
     FM260900 19008KT P6SM VCSH BKN006 OVC040=



000
FTUS42 KILM 251134
TAFFLO
TAF
KFLO 251134Z 2512/2612 08008KT P6SM BKN010 OVC080
      TEMPO 2512/2514 OVC009
     FM251600 13009KT P6SM VCSH BKN025 OVC080
     FM260200 14005KT P6SM VCSH BKN015 BKN025 OVC080
     FM260600 16004KT 3SM BR BKN006 BKN025=



000
FTUS42 KILM 251134
TAFLBT
TAF
KLBT 251134Z 2512/2612 08008KT P6SM SCT012 BKN090
      TEMPO 2512/2514 BKN012
     FM251600 12008KT P6SM VCSH BKN025 OVC080
     FM260200 13005KT P6SM VCSH BKN015 BKN025 OVC080
     FM260600 15004KT 3SM BR BKN006 BKN025=



000
FTUS42 KILM 251134
TAFMYR
TAF
KMYR 251134Z 2512/2612 05009KT P6SM FEW009 SCT030 SCT080
     FM251600 12010KT P6SM BKN025 BKN080
     FM252100 14013KT P6SM SCT015 BKN040 OVC060
     FM260200 15009KT 6SM -SHRA BKN010 BKN035
     FM260800 20008KT P6SM VCSH BKN006 OVC040=



000
FTUS42 KILM 251134
TAFCRE
TAF
KCRE 251134Z 2512/2612 05006KT P6SM FEW009 SCT030 SCT080
     FM251600 13009KT P6SM BKN025 BKN080
     FM252100 15013KT P6SM SCT015 BKN040 OVC060
     FM260300 16008KT 6SM -SHRA BKN010 BKN035
     FM260900 19008KT P6SM VCSH BKN006 OVC040=



000
FTUS42 KILM 251134
TAFILM
TAF
KILM 251134Z 2512/2612 05006KT P6SM SCT030 SCT080
     FM251600 12008KT P6SM BKN025 BKN080
     FM252100 14009KT P6SM SCT015 BKN040 OVC060
     FM260600 16008KT P6SM VCSH BKN010 BKN035=



000
FTUS42 KILM 251134
TAFMYR
TAF
KMYR 251134Z 2512/2612 05009KT P6SM FEW009 SCT030 SCT080
     FM251600 12010KT P6SM BKN025 BKN080
     FM252100 14013KT P6SM SCT015 BKN040 OVC060
     FM260200 15009KT 6SM -SHRA BKN010 BKN035
     FM260800 20008KT P6SM VCSH BKN006 OVC040=



000
FTUS42 KILM 251134
TAFFLO
TAF
KFLO 251134Z 2512/2612 08008KT P6SM BKN010 OVC080
      TEMPO 2512/2514 OVC009
     FM251600 13009KT P6SM VCSH BKN025 OVC080
     FM260200 14005KT P6SM VCSH BKN015 BKN025 OVC080
     FM260600 16004KT 3SM BR BKN006 BKN025=



000
FTUS42 KILM 251134
TAFLBT
TAF
KLBT 251134Z 2512/2612 08008KT P6SM SCT012 BKN090
      TEMPO 2512/2514 BKN012
     FM251600 12008KT P6SM VCSH BKN025 OVC080
     FM260200 13005KT P6SM VCSH BKN015 BKN025 OVC080
     FM260600 15004KT 3SM BR BKN006 BKN025=



000
FTUS42 KILM 250921 AAA
TAFLBT
TAF AMD
KLBT 250921Z 2509/2606 09006KT P6SM FEW025 SCT100
     FM251400 07007KT P6SM BKN012 OVC025
     FM251600 08007KT P6SM SCT015 BKN025
     FM251900 14008KT P6SM BKN025 OVC050=



000
FTUS42 KILM 250920 AAA
TAFFLO
TAF AMD
KFLO 250920Z 2509/2606 06008KT P6SM SCT025 SCT100
      TEMPO 2511/2514 5SM BR BKN011
     FM251400 07007KT P6SM BKN012 OVC025
     FM251600 08007KT P6SM SCT015 BKN025
     FM251900 13009KT P6SM BKN025 OVC050=



000
FTUS42 KILM 250919 CCA
TAFLBT
TAF COR
KLBT 250919Z 2506/2606 09006KT P6SM FEW025 SCT100
     FM251400 07007KT P6SM BKN012 OVC025
     FM251600 08007KT P6SM SCT015 BKN025
     FM251900 14008KT P6SM BKN025 OVC050=



000
FTUS42 KILM 250919 CCA
TAFLBT
TAF COR
KLBT 250919Z 2506/2606 09006KT P6SM FEW025 SCT100
     FM251400 07007KT P6SM BKN012 OVC025
     FM251600 08007KT P6SM SCT015 BKN025
     FM251900 14008KT P6SM BKN025 OVC050=



000
FTUS42 KILM 250919 CCA
TAFFLO
TAF COR
KFLO 250919Z 2506/2606 12005KT P6SM SCT025 SCT100
     FM251000 06008KT P6SM SCT007 OVC015
      TEMPO 2511/2514 5SM BR
     FM251400 07007KT P6SM BKN012 OVC025
     FM251600 08007KT P6SM SCT015 BKN025
     FM251900 13009KT P6SM BKN025 OVC050=



000
FTUS42 KILM 250919 CCA
TAFFLO
TAF COR
KFLO 250919Z 2506/2606 12005KT P6SM SCT025 SCT100
     FM251000 06008KT P6SM SCT007 OVC015
      TEMPO 2511/2514 5SM BR
     FM251400 07007KT P6SM BKN012 OVC025
     FM251600 08007KT P6SM SCT015 BKN025
     FM251900 13009KT P6SM BKN025 OVC050=



000
FTUS42 KILM 250816 AAA
TAFILM
TAF AMD
KILM 250816Z 2508/2606 04007KT P6SM OVC014
     FM250900 05006KT P6SM BKN008 OVC015
     FM251400 07007KT P6SM OVC015
     FM251600 09007KT P6SM BKN025 OVC050
     FM251900 14011KT P6SM BKN015 OVC025=



000
FTUS42 KILM 250816 AAA
TAFILM
TAF AMD
KILM 250816Z 2508/2606 04007KT P6SM OVC014
     FM250900 05006KT P6SM BKN008 OVC015
     FM251400 07007KT P6SM OVC015
     FM251600 09007KT P6SM BKN025 OVC050
     FM251900 14011KT P6SM BKN015 OVC025=



000
FTUS42 KILM 250535
TAFLBT
TAF
KLBT 250535Z 2506/2606 09006KT P6SM FEW025 SCT100
     FM250900 06006KT P6SM BKN007 OVC015
     FM251400 07007KT P6SM BKN012 OVC025
     FM251600 08007KT P6SM SCT015 BKN025
     FM251900 14008KT P6SM BKN025 OVC050=



000
FTUS42 KILM 250535
TAFCRE
TAF
KCRE 250535Z 2506/2606 06010KT 6SM -RA BKN050 OVC100
     FM250800 06005KT P6SM BKN007 OVC015
      TEMPO 2510/2513 6SM BR OVC007
     FM251400 07007KT P6SM OVC015
     FM251600 10007KT P6SM BKN025 OVC050
     FM251900 14010KT P6SM BKN015 OVC025=



000
FTUS42 KILM 250535
TAFILM
TAF
KILM 250535Z 2506/2606 06008KT P6SM FEW015 SCT120
     FM250900 05006KT P6SM BKN008 OVC015
     FM251400 07007KT P6SM OVC015
     FM251600 09007KT P6SM BKN025 OVC050
     FM251900 14011KT P6SM BKN015 OVC025=



000
FTUS42 KILM 250535
TAFFLO
TAF
KFLO 250535Z 2506/2606 12005KT P6SM SCT025 SCT100
     FM251000 06008KT P6SM BKN007 OVC015
      TEMPO 2511/2514 5SM BR OVC007
     FM251400 07007KT P6SM BKN012 OVC025
     FM251600 08007KT P6SM SCT015 BKN025
     FM251900 13009KT P6SM BKN025 OVC050=



000
FTUS42 KILM 250535
TAFMYR
TAF
KMYR 250535Z 2506/2606 06010KT P6SM VCSH SCT045 BKN060 OVC100
     FM250800 05008KT P6SM BKN007 OVC015
      TEMPO 2510/2513 6SM BR OVC007
     FM251400 09009KT P6SM OVC015
     FM251600 12007KT P6SM BKN025 OVC050
     FM251900 14012KT P6SM BKN015 OVC025
      AMD LTD TO CLD VIS AND WIND TIL 251100=



000
FTUS42 KILM 242325
TAFMYR
TAF
KMYR 242325Z 2500/2524 09010KT P6SM SCT060 OVC100
     FM250700 06004KT P6SM BKN007 OVC015
      TEMPO 2510/2513 4SM BR OVC007
     FM251400 09009KT P6SM BKN012
     FM251600 12007KT P6SM SCT020 BKN050
     FM251900 14012KT P6SM SCT025 OVC050
      AMD LTD TO CLD VIS AND WIND 2504/2511=



000
FTUS42 KILM 242325
TAFFLO
TAF
KFLO 242325Z 2500/2524 13005KT P6SM FEW050 SCT250
     FM250800 06008KT P6SM BKN007 OVC015
     FM251400 07007KT P6SM BKN012 OVC025
     FM251600 08007KT P6SM SCT015 BKN025
     FM251900 13009KT P6SM SCT025 BKN050=



000
FTUS42 KILM 242325
TAFLBT
TAF
KLBT 242325Z 2500/2524 12005KT P6SM FEW050 FEW250
     FM250800 06004KT P6SM BKN007 OVC015
     FM251400 07007KT P6SM BKN012 OVC025
     FM251600 08007KT P6SM SCT015 BKN025
     FM251900 14008KT P6SM SCT025 BKN050=



000
FTUS42 KILM 242325
TAFILM
TAF
KILM 242325Z 2500/2524 11008KT P6SM FEW015 FEW250
     FM250800 04006KT P6SM BKN008 OVC015
     FM251400 07007KT P6SM BKN012
     FM251600 09007KT P6SM SCT020 BKN050
     FM251900 14011KT P6SM SCT025 OVC050=



000
FTUS42 KILM 242325
TAFLBT
TAF
KLBT 242325Z 2500/2524 12005KT P6SM FEW050 FEW250
     FM250800 06004KT P6SM BKN007 OVC015
     FM251400 07007KT P6SM BKN012 OVC025
     FM251600 08007KT P6SM SCT015 BKN025
     FM251900 14008KT P6SM SCT025 BKN050=



000
FTUS42 KILM 242325
TAFFLO
TAF
KFLO 242325Z 2500/2524 13005KT P6SM FEW050 SCT250
     FM250800 06008KT P6SM BKN007 OVC015
     FM251400 07007KT P6SM BKN012 OVC025
     FM251600 08007KT P6SM SCT015 BKN025
     FM251900 13009KT P6SM SCT025 BKN050=



000
FTUS42 KILM 242325
TAFCRE
TAF
KCRE 242325Z 2500/2524 11008KT P6SM SCT060 OVC100
     FM250700 06005KT P6SM BKN007 OVC015
      TEMPO 2510/2513 4SM BR OVC007
     FM251400 07007KT P6SM BKN012
     FM251600 10007KT P6SM SCT020 BKN050
     FM251900 14010KT P6SM SCT025 OVC050=



000
FTUS42 KILM 242325
TAFILM
TAF
KILM 242325Z 2500/2524 11008KT P6SM FEW015 FEW250
     FM250800 04006KT P6SM BKN008 OVC015
     FM251400 07007KT P6SM BKN012
     FM251600 09007KT P6SM SCT020 BKN050
     FM251900 14011KT P6SM SCT025 OVC050=



000
FTUS42 KILM 242325
TAFMYR
TAF
KMYR 242325Z 2500/2524 09010KT P6SM SCT060 OVC100
     FM250700 06004KT P6SM BKN007 OVC015
      TEMPO 2510/2513 4SM BR OVC007
     FM251400 09009KT P6SM BKN012
     FM251600 12007KT P6SM SCT020 BKN050
     FM251900 14012KT P6SM SCT025 OVC050
      AMD LTD TO CLD VIS AND WIND 2504/2511=



000
FTUS42 KILM 242325
TAFCRE
TAF
KCRE 242325Z 2500/2524 11008KT P6SM SCT060 OVC100
     FM250700 06005KT P6SM BKN007 OVC015
      TEMPO 2510/2513 4SM BR OVC007
     FM251400 07007KT P6SM BKN012
     FM251600 10007KT P6SM SCT020 BKN050
     FM251900 14010KT P6SM SCT025 OVC050=



    US Dept of Commerce
    National Oceanic and Atmospheric Administration
    National Weather Service
    1325 East West Highway
    Silver Spring, MD 20910
    Page Author: NWS Internet Services Team
Disclaimer
Information Quality
Credits
Glossary
Privacy Policy
Freedom of Information Act (FOIA)
About Us
Career Opportunities